Terminal Aerodrome Forecast
Issued by NWS

Home | Current Version | Previous Version | Text Only | Print | Product List | Glossary On
Versions: 1 2 3 4 5 6 7 8 9 10 11 12 13 14 15 16 17
000
FTUS46 KMTR 291700
TAFOAK
TAF
KOAK 291736Z 2918/3024 28004KT P6SM FEW250
     FM292300 28012KT P6SM FEW250
     FM300300 28007KT P6SM FEW250
     FM301200 28003KT P6SM BKN010
     FM301600 26005KT P6SM BKN250=

USA.gov is the U.S. government's official web portal to all federal, state and local government web resources and services.